createdAt,value
2018-11-22T00:00:57.470Z,1.95
2018-11-22T00:03:27.491Z,1.93
2018-11-22T00:05:57.206Z,1.95
2018-11-22T00:08:27.012Z,1.93
2018-11-22T00:10:56.799Z,1.93
2018-11-22T00:13:26.603Z,1.89
2018-11-22T00:15:56.735Z,1.89
2018-11-22T00:18:26.592Z,1.95
2018-11-22T00:20:56.386Z,1.95
2018-11-22T00:23:26.215Z,1.88
2018-11-22T00:25:56.003Z,1.92
2018-11-22T00:28:25.745Z,1.93
2018-11-22T00:30:56.125Z,1.89
2018-11-22T00:33:26.065Z,2.61
2018-11-22T00:35:55.976Z,2.59
2018-11-22T00:38:26.246Z,2.69
2018-11-22T00:40:56.277Z,2.58
2018-11-22T00:43:26.500Z,2.38
2018-11-22T00:45:56.258Z,2.53
2018-11-22T00:48:25.989Z,2.24
2018-11-22T00:50:55.972Z,2.45
2018-11-22T00:53:25.987Z,2.28
2018-11-22T00:55:56.031Z,2.39
2018-11-22T00:58:25.792Z,2.26
2018-11-22T01:00:55.626Z,2.37
2018-11-22T01:03:25.579Z,2.35
2018-11-22T01:05:55.803Z,2.44
2018-11-22T01:08:25.695Z,2.41
2018-11-22T01:10:55.501Z,2.32
2018-11-22T01:13:25.275Z,2.31
2018-11-22T01:15:54.936Z,2.42
2018-11-22T01:18:24.700Z,2.09
2018-11-22T01:20:54.389Z,1.96
2018-11-22T01:23:24.399Z,1.83
2018-11-22T01:25:54.429Z,1.74
2018-11-22T01:28:24.579Z,1.77
2018-11-22T01:30:54.690Z,1.72
2018-11-22T01:33:26.096Z,1.75
2018-11-22T01:35:54.185Z,1.77
2018-11-22T01:38:23.861Z,1.76
2018-11-22T01:40:53.594Z,2.10
2018-11-22T01:43:23.506Z,1.71
2018-11-22T01:45:53.155Z,1.72
2018-11-22T01:48:22.913Z,1.78
2018-11-22T01:50:52.625Z,1.84
2018-11-22T01:53:22.535Z,1.75
2018-11-22T01:55:52.271Z,1.81
2018-11-22T01:58:22.066Z,1.76
2018-11-22T02:00:51.967Z,1.78
2018-11-22T02:03:21.614Z,1.84
2018-11-22T02:05:51.370Z,1.78
2018-11-22T02:08:21.164Z,1.79
2018-11-22T02:10:51.176Z,1.83
2018-11-22T02:13:21.192Z,1.81
2018-11-22T02:15:50.996Z,1.81
2018-11-22T02:18:20.682Z,1.84
2018-11-22T02:20:50.493Z,1.85
2018-11-22T02:23:20.229Z,1.85
2018-11-22T02:25:50.365Z,1.83
2018-11-22T02:28:20.119Z,1.79
2018-11-22T02:30:49.895Z,1.74
2018-11-22T02:33:19.723Z,1.76
2018-11-22T02:35:50.084Z,1.72
2018-11-22T02:38:19.734Z,1.71
2018-11-22T02:40:49.555Z,1.73
2018-11-22T02:43:19.719Z,1.75
2018-11-22T02:45:49.432Z,1.78
2018-11-22T02:48:19.234Z,1.81
2018-11-22T02:50:48.895Z,1.77
2018-11-22T02:53:18.685Z,1.74
2018-11-22T02:55:48.546Z,1.72
2018-11-22T02:58:21.794Z,1.78
2018-11-22T03:00:51.527Z,1.76
2018-11-22T03:03:21.306Z,1.75
2018-11-22T03:05:51.481Z,1.73
2018-11-22T03:08:21.655Z,1.74
2018-11-22T03:10:54.301Z,1.78
2018-11-22T03:13:24.176Z,1.75
2018-11-22T03:15:54.084Z,1.74
2018-11-22T03:18:30.289Z,1.77
2018-11-22T03:21:00.078Z,1.84
2018-11-22T03:23:29.810Z,1.73
2018-11-22T03:25:59.646Z,1.78
2018-11-22T03:28:29.384Z,1.76
2018-11-22T03:30:59.331Z,1.77
2018-11-22T03:33:29.886Z,1.81
2018-11-22T03:35:59.973Z,1.82
2018-11-22T03:38:29.830Z,1.83
2018-11-22T03:40:59.570Z,1.78
2018-11-22T03:43:29.714Z,1.88
2018-11-22T03:46:01.615Z,1.80
2018-11-22T03:48:31.833Z,1.87
2018-11-22T03:51:01.616Z,1.83
2018-11-22T03:53:31.354Z,1.76
2018-11-22T03:56:01.275Z,1.87
2018-11-22T03:58:31.026Z,1.89
2018-11-22T04:01:00.900Z,1.86
2018-11-22T04:03:30.718Z,1.75
2018-11-22T04:06:00.517Z,1.78
2018-11-22T04:08:30.706Z,1.80
2018-11-22T04:11:00.470Z,1.79
2018-11-22T04:13:30.153Z,1.78
2018-11-22T04:16:00.809Z,1.79
2018-11-22T04:18:30.466Z,1.76
2018-11-22T04:21:00.370Z,1.68
2018-11-22T04:23:30.503Z,1.79
2018-11-22T04:26:00.288Z,1.72
2018-11-22T04:28:30.301Z,1.67
2018-11-22T04:31:00.095Z,1.72
2018-11-22T04:33:29.823Z,1.74
2018-11-22T04:35:59.666Z,1.73
2018-11-22T04:38:29.657Z,1.67
2018-11-22T04:40:59.468Z,1.73
2018-11-22T04:43:29.300Z,1.69
2018-11-22T04:45:59.466Z,1.67
2018-11-22T04:48:29.593Z,1.74
2018-11-22T04:50:59.380Z,1.77
2018-11-22T04:53:29.376Z,1.68
2018-11-22T04:55:59.583Z,1.72
2018-11-22T04:58:29.623Z,1.72
2018-11-22T05:00:59.629Z,1.66
2018-11-22T05:03:29.609Z,1.69
2018-11-22T05:05:59.559Z,1.67
2018-11-22T05:08:29.524Z,1.70
2018-11-22T05:10:59.327Z,1.69
2018-11-22T05:13:29.594Z,1.65
2018-11-22T05:15:59.713Z,1.68
2018-11-22T05:18:29.939Z,1.68
2018-11-22T05:20:59.705Z,1.63
2018-11-22T05:23:30.447Z,1.59
2018-11-22T05:25:59.459Z,1.58
2018-11-22T05:28:29.216Z,1.58
2018-11-22T05:30:59.030Z,1.61
2018-11-22T05:33:29.099Z,1.61
2018-11-22T05:35:59.066Z,1.66
2018-11-22T05:38:29.378Z,1.61
2018-11-22T05:40:59.094Z,1.64
2018-11-22T05:43:28.876Z,1.66
2018-11-22T05:45:58.673Z,1.67
2018-11-22T05:48:28.564Z,1.69
2018-11-22T05:50:58.401Z,1.67
2018-11-22T05:53:28.110Z,1.64
2018-11-22T05:55:58.165Z,1.69
2018-11-22T05:58:28.004Z,1.62
2018-11-22T06:00:59.415Z,1.62
2018-11-22T06:03:29.157Z,1.63
2018-11-22T06:05:59.025Z,1.55
2018-11-22T06:08:28.819Z,1.59
2018-11-22T06:10:58.613Z,1.58
2018-11-22T06:13:28.503Z,1.61
2018-11-22T06:15:58.768Z,1.64
2018-11-22T06:18:28.473Z,1.69
2018-11-22T06:20:58.230Z,1.66
2018-11-22T06:23:28.098Z,1.61
2018-11-22T06:25:57.918Z,1.65
2018-11-22T06:28:27.610Z,1.66
2018-11-22T06:30:57.848Z,1.66
2018-11-22T06:33:27.657Z,1.64
2018-11-22T06:35:57.449Z,1.69
2018-11-22T06:38:27.345Z,1.62
2018-11-22T06:40:57.821Z,1.65
2018-11-22T06:43:27.647Z,1.60
2018-11-22T06:45:57.444Z,1.64
2018-11-22T06:48:27.162Z,1.61
2018-11-22T06:50:58.320Z,1.63
2018-11-22T06:53:27.574Z,1.60
2018-11-22T06:55:57.483Z,1.68
2018-11-22T06:58:27.332Z,1.72
2018-11-22T07:00:57.255Z,1.67
2018-11-22T07:03:27.051Z,1.68
2018-11-22T07:05:56.915Z,1.67
2018-11-22T07:08:26.762Z,1.64
2018-11-22T07:10:57.079Z,1.65
2018-11-22T07:13:27.156Z,1.74
2018-11-22T07:15:57.447Z,1.72
2018-11-22T07:18:27.948Z,1.74
2018-11-22T07:20:57.893Z,1.73
2018-11-22T07:23:28.149Z,1.69
2018-11-22T07:25:58.414Z,1.79
2018-11-22T07:28:28.564Z,1.79
2018-11-22T07:30:58.677Z,1.77
2018-11-22T07:33:28.638Z,1.77
2018-11-22T07:35:58.404Z,1.77
2018-11-22T07:38:28.476Z,1.76
2018-11-22T07:40:58.669Z,1.75
2018-11-22T07:43:28.602Z,1.78
2018-11-22T07:45:58.539Z,1.71
2018-11-22T07:48:28.223Z,1.78
2018-11-22T07:50:58.265Z,1.86
2018-11-22T07:53:28.373Z,1.90
2018-11-22T07:55:58.204Z,1.84
2018-11-22T07:58:27.903Z,1.98
2018-11-22T08:00:57.659Z,1.89
2018-11-22T08:03:27.451Z,1.95
2018-11-22T08:05:57.470Z,2.06
2018-11-22T08:08:27.339Z,2.00
2018-11-22T08:10:57.098Z,1.99
2018-11-22T08:13:27.063Z,1.99
2018-11-22T08:15:56.796Z,2.03
2018-11-22T08:18:26.583Z,2.14
2018-11-22T08:20:56.615Z,2.11
2018-11-22T08:23:26.463Z,2.10
2018-11-22T08:25:57.079Z,2.09
2018-11-22T08:28:27.088Z,2.07
2018-11-22T08:30:57.716Z,2.00
2018-11-22T08:33:27.732Z,2.01
2018-11-22T08:35:57.997Z,2.07
2018-11-22T08:38:28.059Z,2.13
2018-11-22T08:40:58.317Z,2.21
2018-11-22T08:43:28.380Z,2.29
2018-11-22T08:45:58.249Z,2.26
2018-11-22T08:50:58.411Z,2.27
2018-11-22T12:15:52.015Z,3.16
2018-11-22T12:18:22.111Z,3.18
2018-11-22T12:20:52.166Z,3.11
2018-11-22T12:23:22.722Z,3.16
2018-11-22T12:25:53.195Z,3.25
2018-11-22T12:28:23.829Z,3.22
2018-11-22T12:30:53.920Z,3.20
2018-11-22T12:33:40.885Z,3.18
2018-11-22T12:36:16.009Z,3.15
2018-11-22T12:38:52.554Z,3.22
2018-11-22T12:41:22.990Z,3.18
2018-11-22T12:43:53.145Z,3.19
2018-11-22T12:46:23.324Z,3.20
2018-11-22T12:48:53.255Z,3.16
2018-11-22T12:51:23.479Z,3.06
2018-11-22T12:53:53.586Z,3.15
2018-11-22T12:56:24.106Z,3.18
2018-11-22T12:58:54.346Z,3.15
2018-11-22T13:01:28.609Z,3.19
2018-11-22T13:03:58.499Z,3.20
2018-11-22T13:06:28.565Z,3.09
2018-11-22T13:08:58.911Z,3.16
2018-11-22T13:11:28.930Z,3.13
2018-11-22T13:13:59.515Z,3.07
2018-11-22T13:16:29.440Z,3.09
2018-11-22T13:18:59.721Z,3.08
2018-11-22T13:21:29.870Z,3.10
2018-11-22T13:23:59.947Z,3.13
2018-11-22T13:26:29.809Z,3.14
2018-11-22T13:28:59.769Z,3.09
2018-11-22T13:31:29.615Z,3.17
2018-11-22T13:34:00.503Z,3.21
2018-11-22T13:36:31.504Z,3.22
2018-11-22T13:39:02.248Z,3.14
2018-11-22T13:41:33.038Z,3.30
2018-11-22T13:44:03.775Z,3.25
2018-11-22T13:46:34.179Z,3.25
2018-11-22T13:49:06.162Z,3.23
2018-11-22T13:51:36.736Z,3.29
2018-11-22T13:54:07.644Z,3.24
2018-11-22T13:56:38.261Z,3.24
2018-11-22T13:59:08.819Z,3.15
2018-11-22T14:01:39.220Z,3.11
2018-11-22T14:04:09.381Z,3.21
2018-11-22T14:06:39.465Z,3.17
2018-11-22T14:09:11.900Z,3.10
2018-11-22T14:11:42.405Z,3.18
2018-11-22T14:14:13.780Z,3.16
2018-11-22T14:16:44.341Z,3.15
2018-11-22T14:19:14.526Z,3.22
2018-11-22T14:21:45.424Z,3.16
2018-11-22T14:24:15.553Z,3.21
2018-11-22T14:26:45.538Z,3.22
2018-11-22T14:29:15.681Z,3.22
2018-11-22T14:31:46.470Z,3.17
2018-11-22T14:34:17.407Z,3.22
2018-11-22T14:36:47.474Z,3.23
2018-11-22T14:39:17.571Z,3.20
2018-11-22T14:41:47.788Z,3.26
2018-11-22T14:44:18.045Z,3.26
2018-11-22T14:46:48.316Z,3.30
2018-11-22T14:49:18.707Z,3.20
2018-11-22T14:51:51.279Z,3.22
2018-11-22T14:54:22.175Z,3.17
2018-11-22T14:56:52.350Z,3.15
2018-11-22T14:59:22.425Z,3.20
2018-11-22T15:01:52.521Z,3.17
2018-11-22T15:04:22.697Z,3.13
2018-11-22T15:06:52.981Z,3.18
2018-11-22T15:09:23.141Z,3.10
2018-11-22T15:11:53.532Z,3.12
2018-11-22T15:14:23.672Z,3.13
2018-11-22T15:16:55.027Z,3.13
2018-11-22T15:19:25.849Z,3.14
2018-11-22T15:21:55.946Z,3.08
2018-11-22T15:24:25.944Z,3.10
2018-11-22T15:26:56.732Z,3.15
2018-11-22T15:29:26.861Z,3.15
2018-11-22T15:31:56.932Z,3.18
2018-11-22T15:34:27.148Z,3.11
2018-11-22T15:36:58.322Z,3.12
2018-11-22T15:39:28.305Z,3.14
2018-11-22T15:41:58.111Z,3.13
2018-11-22T15:44:28.085Z,3.17
2018-11-22T15:46:58.128Z,3.18
2018-11-22T15:49:28.139Z,3.18
2018-11-22T15:51:58.089Z,3.17
2018-11-22T15:54:28.877Z,3.17
2018-11-22T15:56:58.877Z,3.17
2018-11-22T15:59:28.886Z,3.13
2018-11-22T16:01:59.246Z,3.16
2018-11-22T16:04:29.403Z,3.19
2018-11-22T16:06:59.663Z,3.17
2018-11-22T16:09:29.955Z,3.17
2018-11-22T16:12:00.483Z,3.22
2018-11-22T16:14:30.540Z,3.26
2018-11-22T16:17:00.702Z,3.21
2018-11-22T16:19:30.592Z,3.19
2018-11-22T16:22:00.423Z,3.21
2018-11-22T16:24:31.035Z,3.22
2018-11-22T16:27:01.165Z,3.19
2018-11-22T16:29:31.518Z,3.20
2018-11-22T16:32:02.129Z,3.19
2018-11-22T16:34:32.151Z,3.19
2018-11-22T16:37:02.146Z,3.22
2018-11-22T16:39:32.344Z,3.23
2018-11-22T16:42:02.330Z,3.25
2018-11-22T16:44:32.558Z,3.35
2018-11-22T16:47:02.667Z,3.26
2018-11-22T16:49:33.239Z,3.28
2018-11-22T16:52:03.358Z,3.27
2018-11-22T16:54:33.353Z,3.27
2018-11-22T16:57:03.275Z,3.23
2018-11-22T16:59:33.559Z,3.22
2018-11-22T17:02:03.875Z,3.20
2018-11-22T17:04:34.091Z,3.17
2018-11-22T17:07:04.340Z,3.19
2018-11-22T17:09:34.558Z,3.20
2018-11-22T17:12:04.690Z,3.22
2018-11-22T17:14:34.653Z,3.18
2018-11-22T17:17:04.819Z,3.18
2018-11-22T17:19:35.258Z,3.25
2018-11-22T17:22:05.600Z,3.19
2018-11-22T17:24:35.808Z,3.18
2018-11-22T17:27:06.111Z,3.15
2018-11-22T17:29:37.051Z,3.13
2018-11-22T17:32:07.264Z,3.16
2018-11-22T17:34:37.237Z,3.15
2018-11-22T17:37:07.904Z,3.11
2018-11-22T17:39:37.941Z,3.18
2018-11-22T17:42:07.893Z,3.21
2018-11-22T17:44:37.755Z,3.19
2018-11-22T17:47:08.659Z,3.23
2018-11-22T17:49:38.843Z,3.14
2018-11-22T17:52:09.137Z,3.19
2018-11-22T17:54:39.037Z,3.19
2018-11-22T17:57:09.279Z,3.15
2018-11-22T17:59:39.312Z,3.20
2018-11-22T18:02:09.569Z,3.15
2018-11-22T18:04:39.773Z,3.15
2018-11-22T18:07:09.753Z,3.17
2018-11-22T18:09:39.735Z,3.15
2018-11-22T18:12:09.944Z,3.19
2018-11-22T18:14:39.845Z,3.22
2018-11-22T18:17:09.764Z,3.17
2018-11-22T18:19:40.530Z,3.14
2018-11-22T18:22:10.419Z,3.12
2018-11-22T18:24:42.351Z,3.08
2018-11-22T18:27:12.242Z,3.00
2018-11-22T18:29:42.485Z,2.95
2018-11-22T18:32:12.385Z,2.93
2018-11-22T18:34:42.264Z,2.97
2018-11-22T18:37:13.442Z,3.06
2018-11-22T18:39:43.871Z,3.02
2018-11-22T18:42:13.658Z,3.07
2018-11-22T18:44:43.543Z,3.03
2018-11-22T18:47:14.157Z,3.08
2018-11-22T18:49:44.188Z,3.09
2018-11-22T18:52:14.121Z,3.11
2018-11-22T18:54:44.148Z,3.09
2018-11-22T18:57:14.963Z,3.14
2018-11-22T18:59:45.206Z,3.13
2018-11-22T19:02:15.772Z,3.10
2018-11-22T19:04:45.869Z,3.17
2018-11-22T19:07:17.101Z,3.16
2018-11-22T19:09:47.037Z,3.21
2018-11-22T19:12:17.132Z,3.14
2018-11-22T19:14:47.348Z,3.16
2018-11-22T19:17:17.523Z,3.14
2018-11-22T19:19:47.743Z,3.06
2018-11-22T19:22:23.083Z,3.07
2018-11-22T19:24:53.723Z,3.08
2018-11-22T19:27:24.395Z,3.06
2018-11-22T19:29:54.449Z,3.08
2018-11-22T19:32:24.845Z,3.09
2018-11-22T19:34:54.952Z,3.07
2018-11-22T19:37:26.019Z,3.07
2018-11-22T19:39:56.254Z,3.05
2018-11-22T19:42:28.068Z,3.09
2018-11-22T19:44:58.100Z,3.13
2018-11-22T19:47:28.585Z,3.16
2018-11-22T19:49:58.705Z,3.15
2018-11-22T19:52:29.079Z,3.14
2018-11-22T19:54:59.500Z,3.15
2018-11-22T19:57:29.688Z,3.17
2018-11-22T19:59:59.826Z,3.12
2018-11-22T20:02:29.915Z,3.15
2018-11-22T20:05:00.835Z,3.11
2018-11-22T20:07:31.056Z,3.19
2018-11-22T20:10:01.343Z,3.08
2018-11-22T20:12:32.072Z,3.17
2018-11-22T20:15:03.052Z,3.13
2018-11-22T20:17:33.802Z,3.16
2018-11-22T20:20:04.633Z,3.16
2018-11-22T20:22:35.407Z,3.17
2018-11-22T20:25:05.928Z,3.19
2018-11-22T20:27:36.002Z,3.20
2018-11-22T20:30:19.571Z,3.22
2018-11-22T20:32:49.865Z,3.18
2018-11-22T20:35:20.534Z,3.27
2018-11-22T20:37:51.602Z,3.28
2018-11-22T20:40:23.185Z,3.29
2018-11-22T20:42:54.845Z,3.31
2018-11-22T20:45:25.966Z,3.30
2018-11-22T20:47:57.738Z,3.35
2018-11-22T20:50:28.583Z,3.33
2018-11-22T20:52:58.593Z,3.34
2018-11-22T20:55:31.132Z,3.34
2018-11-22T20:58:02.818Z,3.36
2018-11-22T21:00:34.699Z,3.44
2018-11-22T21:03:04.966Z,3.48
2018-11-22T21:05:35.149Z,3.50
2018-11-22T21:08:05.246Z,3.49
2018-11-22T21:10:36.513Z,3.46
2018-11-22T21:13:06.700Z,3.60
2018-11-22T21:15:37.261Z,3.57
2018-11-22T21:18:08.642Z,3.52
2018-11-22T21:20:40.315Z,3.58
2018-11-22T21:23:10.260Z,3.49
2018-11-22T21:25:40.357Z,3.44
2018-11-22T21:28:10.211Z,3.33
2018-11-22T21:30:41.112Z,3.30
2018-11-22T21:33:11.020Z,3.25
2018-11-22T21:35:41.078Z,3.19
2018-11-22T21:38:10.972Z,3.16
2018-11-22T21:40:40.920Z,3.29
2018-11-22T21:43:11.522Z,3.24
2018-11-22T21:45:41.578Z,3.31
2018-11-22T21:48:11.967Z,3.15
2018-11-22T21:50:48.807Z,3.12
2018-11-22T21:53:19.458Z,3.07
2018-11-22T21:55:49.426Z,3.05
2018-11-22T21:58:20.035Z,2.98
2018-11-22T22:00:50.033Z,2.99
2018-11-22T22:03:19.987Z,2.96
2018-11-22T22:05:50.272Z,2.99
2018-11-22T22:08:23.266Z,2.99
2018-11-22T22:10:54.113Z,2.93
2018-11-22T22:13:24.288Z,2.96
2018-11-22T22:15:54.167Z,2.98
2018-11-22T22:18:24.454Z,3.03
2018-11-22T22:20:54.470Z,2.98
2018-11-22T22:23:24.556Z,2.97
2018-11-22T22:25:54.524Z,2.99
2018-11-22T22:28:25.172Z,2.95
2018-11-22T22:30:55.677Z,2.94
2018-11-22T22:33:26.479Z,2.94
2018-11-22T22:35:56.535Z,2.94
2018-11-22T22:38:26.687Z,2.93
2018-11-22T22:40:57.107Z,2.92
2018-11-22T22:43:27.235Z,2.92
2018-11-22T22:45:57.075Z,2.92
2018-11-22T22:48:27.005Z,2.91
2018-11-22T22:50:57.696Z,2.88
2018-11-22T22:53:28.096Z,2.85
2018-11-22T22:55:58.297Z,2.82
2018-11-22T22:58:28.181Z,2.78
2018-11-22T23:01:01.708Z,2.74
2018-11-22T23:03:32.891Z,2.76
2018-11-22T23:06:03.116Z,2.78
2018-11-22T23:08:33.119Z,2.76
2018-11-22T23:11:03.180Z,2.77
2018-11-22T23:13:33.355Z,2.80
2018-11-22T23:16:03.271Z,2.79
2018-11-22T23:18:33.957Z,2.79
2018-11-22T23:21:05.478Z,2.83
2018-11-22T23:23:36.234Z,2.78
2018-11-22T23:26:06.615Z,2.72
2018-11-22T23:31:10.184Z,2.71
2018-11-22T23:33:40.788Z,2.68
2018-11-22T23:36:11.101Z,2.67
2018-11-22T23:38:41.130Z,2.66
2018-11-22T23:41:11.620Z,2.64
2018-11-22T23:43:42.587Z,2.58
2018-11-22T23:46:12.510Z,2.55
2018-11-22T23:48:42.608Z,2.53
2018-11-22T23:51:13.225Z,2.47
2018-11-22T23:53:43.325Z,2.45
2018-11-22T23:56:13.115Z,2.41
2018-11-22T23:58:43.300Z,2.39
